Time;durP1;ratioP1;P1;durP2;ratioP2;P2;SDS_P1;SDS_P2;PMS_P1;PMS_P2;Temp;Humidity;BMP_temperature;BMP_pressure;BME280_temperature;BME280_humidity;BME280_pressure;Samples;Min_cycle;Max_cycle;Signal;HPM_P1;HPM_P2
2021/12/25 00:01:39;;;;;;;;;;;;;;;21.20;33.67;100124.88;101777;1351;61588;-83
2021/12/25 00:04:48;;;;;;;;;;;;;;;21.20;33.73;100121.86;101741;1356;60414;-84
2021/12/25 00:07:14;;;;;;;;;;;;;;;21.20;33.83;100115.66;101772;1351;72681;-83
2021/12/25 00:10:03;;;;;;;;;;;;;;;21.20;33.97;100115.45;101688;1357;74214;-82
2021/12/25 00:12:54;;;;;;;;;;;;;;;21.20;33.87;100116.55;101508;1358;61401;-82
2021/12/25 00:15:42;;;;;;;;;;;;;;;21.20;33.82;100117.63;101844;1355;60991;-83
2021/12/25 00:18:12;;;;;;;;;;;;;;;21.20;33.89;100116.38;101819;1354;72597;-83
2021/12/25 00:21:00;;;;;;;;;;;;;;;21.20;33.88;100122.81;101799;1351;74107;-82
2021/12/25 00:23:50;;;;;;;;;;;;;;;21.19;33.73;100124.27;101445;1357;61422;-83
2021/12/25 00:27:09;;;;;;;;;;;;;;;21.20;33.87;100130.34;101479;1361;60566;-83
2021/12/25 00:29:47;;;;;;;;;;;;;;;;;;;;;
2021/12/25 00:35:47;;;;;;;;;;;;;;;21.19;33.96;100120.70;101334;1356;60475;-83
2021/12/25 00:38:46;;;;;;;;;;;;;;;;;;;;;
2021/12/25 00:41:28;;;;;;;;;;;;;;;21.20;33.85;100122.40;101297;1360;72996;-84
2021/12/25 00:44:14;;;;;;;;;;;;;;;21.21;34.11;100121.67;101475;1357;73114;-83
2021/12/25 00:47:11;;;;;;;;;;;;;;;;;;;;;
2021/12/25 00:50:00;;;;;;;;;;;;;;;21.21;33.99;100125.23;101600;1355;60457;-83
2021/12/25 00:53:06;;;;;;;;;;;;;;;21.20;33.98;100125.62;101477;1357;71602;-82
2021/12/25 00:55:32;;;;;;;;;;;;;;;21.21;33.86;100131.34;101460;1359;73936;-83
2021/12/25 00:58:32;;;;;;;;;;;;;;;21.21;34.10;100130.43;101417;1360;61711;-84
2021/12/25 01:01:36;;;;;;;;;;;;;;;;;;;;;
2021/12/25 01:04:17;;;;;;;;;;;;;;;21.20;34.04;100132.79;101651;1360;73907;-83
2021/12/25 01:06:46;;;;;;;;;;;;;;;21.21;33.98;100131.68;101663;1357;75095;-82
2021/12/25 01:09:36;;;;;;;;;;;;;;;21.21;34.04;100129.19;101609;1360;60442;-82
2021/12/25 01:19:30;;;;;;;;;;;;;;;21.21;34.00;100115.20;101660;1357;72692;-82
2021/12/25 01:22:08;;;;;;;;;;;;;;;21.21;33.85;100117.89;101626;1360;60519;-83
2021/12/25 01:40:53;;;;;;;;;;;;;;;21.23;34.12;100110.73;101267;1362;71996;-82
2021/12/25 01:47:48;;;;;;;;;;;;;;;21.23;33.94;100110.53;101047;1362;60437;-83
2021/12/25 01:50:36;;;;;;;;;;;;;;;21.23;33.95;100116.64;101266;1367;60742;-83
2021/12/25 01:53:27;;;;;;;;;;;;;;;21.23;33.99;100114.49;100433;1373;73030;-83
2021/12/25 01:56:27;;;;;;;;;;;;;;;21.23;33.97;100106.60;100444;1366;74973;-83
2021/12/25 01:59:33;;;;;;;;;;;;;;;21.23;34.20;100107.48;100626;1371;63623;-82
2021/12/25 02:02:16;;;;;;;;;;;;;;;;;;;;;
2021/12/25 02:05:04;;;;;;;;;;;;;;;21.23;34.10;100106.05;100421;1371;74166;-83
2021/12/25 02:07:52;;;;;;;;;;;;;;;;;;;;;
2021/12/25 02:10:41;;;;;;;;;;;;;;;21.23;34.08;100107.33;101583;1355;61179;-83
2021/12/25 02:13:26;;;;;;;;;;;;;;;;;;;;;
2021/12/25 02:16:16;;;;;;;;;;;;;;;21.24;34.08;100103.52;101491;1360;73959;-83
2021/12/25 02:22:13;;;;;;;;;;;;;;;21.23;33.97;100093.92;101502;1355;61848;-83
2021/12/25 02:28:19;;;;;;;;;;;;;;;21.23;34.03;100089.08;100555;1366;72841;-82
2021/12/25 02:30:45;;;;;;;;;;;;;;;21.23;34.03;100090.02;100748;1368;73948;-83
2021/12/25 02:33:19;;;;;;;;;;;;;;;21.23;34.17;100090.36;100965;1369;60542;-83
2021/12/25 02:36:24;;;;;;;;;;;;;;;;;;;;;
2021/12/25 02:38:50;;;;;;;;;;;;;;;21.23;34.07;100092.14;100081;1376;73792;-84
2021/12/25 02:41:34;;;;;;;;;;;;;;;21.23;34.04;100089.27;100274;1375;60643;-83
2021/12/25 02:44:10;;;;;;;;;;;;;;;21.23;34.02;100089.79;100251;1369;60756;-83
2021/12/25 02:46:55;;;;;;;;;;;;;;;;;;;;;
2021/12/25 02:49:41;;;;;;;;;;;;;;;21.22;34.07;100074.27;100246;1376;73840;-82
2021/12/25 02:52:51;;;;;;;;;;;;;;;21.23;34.05;100081.03;100271;1376;74262;-82
2021/12/25 02:55:43;;;;;;;;;;;;;;;;;;;;;
2021/12/25 02:58:39;;;;;;;;;;;;;;;21.23;34.13;100078.33;100260;1373;61849;-83
2021/12/25 03:01:32;;;;;;;;;;;;;;;21.23;34.11;100070.99;100281;1374;74488;-83
2021/12/25 03:04:29;;;;;;;;;;;;;;;21.23;34.22;100078.13;100565;1369;72846;-83
2021/12/25 03:07:17;;;;;;;;;;;;;;;21.24;34.00;100078.30;101332;1366;60549;-82
2021/12/25 03:10:03;;;;;;;;;;;;;;;21.24;34.18;100076.31;101278;1366;60786;-82
2021/12/25 03:13:18;;;;;;;;;;;;;;;21.24;34.18;100087.35;100804;1369;71467;-82
2021/12/25 03:16:03;;;;;;;;;;;;;;;21.24;34.11;100089.34;100928;1366;74862;-83
2021/12/25 03:18:40;;;;;;;;;;;;;;;21.25;34.20;100097.54;101266;1366;61222;-84
2021/12/25 03:21:43;;;;;;;;;;;;;;;21.25;34.15;100106.29;101137;1366;61509;-82
2021/12/25 03:24:40;;;;;;;;;;;;;;;21.25;34.27;100114.14;101288;1363;73957;-82
2021/12/25 03:27:28;;;;;;;;;;;;;;;21.25;34.21;100114.31;100781;1368;74008;-82
2021/12/25 03:30:15;;;;;;;;;;;;;;;21.25;34.16;100115.61;100295;1371;60536;-83
2021/12/25 03:33:03;;;;;;;;;;;;;;;;;;;;;
2021/12/25 03:35:34;;;;;;;;;;;;;;;21.26;34.14;100098.35;100230;1371;72668;-83
2021/12/25 03:38:21;;;;;;;;;;;;;;;21.25;34.12;100096.96;100271;1375;72983;-84
2021/12/25 03:41:10;;;;;;;;;;;;;;;21.24;34.22;100099.70;100297;1375;60479;-83
2021/12/25 03:43:44;;;;;;;;;;;;;;;21.25;34.27;100102.50;100242;1375;60632;-84
2021/12/25 03:46:45;;;;;;;;;;;;;;;21.25;34.24;100106.83;100261;1375;74230;-83
2021/12/25 03:58:56;;;;;;;;;;;;;;;21.25;34.19;100101.59;100397;1368;73200;-83
2021/12/25 04:02:33;;;;;;;;;;;;;;;21.25;34.21;100111.80;100294;1368;74913;-84
2021/12/25 04:05:17;;;;;;;;;;;;;;;21.25;34.28;100117.33;100850;1368;60623;-82
2021/12/25 04:10:52;;;;;;;;;;;;;;;;;;;;;
2021/12/25 04:14:00;;;;;;;;;;;;;;;21.25;34.34;100125.39;100212;1371;74108;-82
2021/12/25 04:16:48;;;;;;;;;;;;;;;21.26;34.39;100127.28;100303;1374;60527;-83
2021/12/25 04:19:30;;;;;;;;;;;;;;;21.27;34.32;100132.97;100311;1368;61842;-83
2021/12/25 04:22:26;;;;;;;;;;;;;;;21.27;34.29;100133.71;100253;1375;72229;-83
2021/12/25 04:24:55;;;;;;;;;;;;;;;21.26;34.27;100140.88;100277;1374;75078;-83
2021/12/25 04:28:04;;;;;;;;;;;;;;;21.26;34.40;100141.39;100253;1375;61401;-83
2021/12/25 04:31:11;;;;;;;;;;;;;;;21.27;34.36;100139.39;100279;1376;61009;-83
2021/12/25 05:01:40;;;;;;;;;;;;;;;21.27;34.39;100152.11;99596;1384;72771;-83
2021/12/25 05:05:34;;;;;;;;;;;;;;;;;;;;;
2021/12/25 05:08:42;;;;;;;;;;;;;;;21.28;34.31;100168.88;98579;1399;60668;-83
2021/12/25 05:11:30;;;;;;;;;;;;;;;21.27;34.40;100177.30;98641;1397;74085;-83
2021/12/25 05:14:17;;;;;;;;;;;;;;;;;;;;;
2021/12/25 05:17:10;;;;;;;;;;;;;;;21.28;34.48;100186.76;98684;1394;60652;-83
2021/12/25 05:19:58;;;;;;;;;;;;;;;21.28;34.43;100181.58;98727;1396;60619;-83
2021/12/25 05:23:00;;;;;;;;;;;;;;;21.27;34.49;100178.76;98856;1395;74272;-83
2021/12/25 05:25:48;;;;;;;;;;;;;;;;;;;;;
2021/12/25 05:28:38;;;;;;;;;;;;;;;;;;;;;
2021/12/25 05:31:14;;;;;;;;;;;;;;;21.28;34.44;100179.61;99041;1389;60804;-84
2021/12/25 05:34:00;;;;;;;;;;;;;;;21.28;34.46;100183.40;99182;1386;74133;-84
2021/12/25 05:36:43;;;;;;;;;;;;;;;21.28;34.47;100182.10;99500;1378;74187;-83
2021/12/25 05:39:42;;;;;;;;;;;;;;;;;;;;;
2021/12/25 05:42:28;;;;;;;;;;;;;;;21.28;34.44;100193.39;100167;1371;60432;-84
2021/12/25 05:45:14;;;;;;;;;;;;;;;21.28;34.46;100194.25;100832;1363;72896;-84
2021/12/25 05:47:56;;;;;;;;;;;;;;;21.28;34.46;100203.56;100379;1369;73972;-82
2021/12/25 05:50:42;;;;;;;;;;;;;;;21.28;34.45;100201.79;100424;1368;60676;-82
2021/12/25 05:53:30;;;;;;;;;;;;;;;21.28;34.46;100200.73;100283;1375;60604;-83
2021/12/25 05:56:14;;;;;;;;;;;;;;;;;;;;;
2021/12/25 05:58:43;;;;;;;;;;;;;;;21.28;34.51;100203.07;100671;1365;73847;-84
2021/12/25 06:01:27;;;;;;;;;;;;;;;;;;;;;
2021/12/25 06:04:14;;;;;;;;;;;;;;;21.28;34.55;100207.67;100490;1371;61691;-84
2021/12/25 06:10:14;;;;;;;;;;;;;;;;;;;;;
2021/12/25 06:12:55;;;;;;;;;;;;;;;21.29;34.49;100214.27;99793;1374;61557;-82
2021/12/25 06:15:45;;;;;;;;;;;;;;;;;;;;;
2021/12/25 06:18:31;;;;;;;;;;;;;;;21.29;34.55;100214.80;99620;1375;73979;-84
2021/12/25 06:21:17;;;;;;;;;;;;;;;21.29;34.56;100214.25;99945;1374;73967;-84
2021/12/25 06:23:49;;;;;;;;;;;;;;;21.29;34.55;100217.98;99772;1380;60664;-83
2021/12/25 06:26:59;;;;;;;;;;;;;;;;;;;;;
2021/12/25 06:29:44;;;;;;;;;;;;;;;;;;;;;
2021/12/25 06:32:57;;;;;;;;;;;;;;;21.30;34.54;100226.52;100291;1375;75011;-82
2021/12/25 06:35:36;;;;;;;;;;;;;;;21.31;34.58;100229.67;100272;1376;60206;-82
2021/12/25 06:38:25;;;;;;;;;;;;;;;21.31;34.64;100234.48;100263;1377;61537;-82
2021/12/25 06:41:12;;;;;;;;;;;;;;;21.32;34.56;100237.85;100231;1374;72885;-83
2021/12/25 06:43:57;;;;;;;;;;;;;;;;;;;;;
2021/12/25 06:46:51;;;;;;;;;;;;;;;21.32;34.55;100242.95;100425;1363;60726;-83
2021/12/25 06:49:57;;;;;;;;;;;;;;;21.32;34.70;100248.13;101516;1355;60570;-83
2021/12/25 06:52:45;;;;;;;;;;;;;;;21.33;34.59;100251.31;100755;1371;72959;-83
2021/12/25 06:55:36;;;;;;;;;;;;;;;21.34;34.68;100250.37;100631;1368;74831;-83
2021/12/25 06:58:15;;;;;;;;;;;;;;;21.34;34.53;100250.15;100735;1368;60318;-83
2021/12/25 07:01:36;;;;;;;;;;;;;;;21.35;34.59;100250.25;100849;1365;60648;-82
2021/12/25 07:04:06;;;;;;;;;;;;;;;;;;;;;
2021/12/25 07:07:07;;;;;;;;;;;;;;;21.35;34.56;100250.06;101222;1360;74189;-83
2021/12/25 07:10:14;;;;;;;;;;;;;;;21.36;34.73;100251.02;101524;1358;60404;-82
2021/12/25 07:13:16;;;;;;;;;;;;;;;;;;;;;
2021/12/25 07:16:03;;;;;;;;;;;;;;;;;;;;;
2021/12/25 07:18:40;;;;;;;;;;;;;;;21.38;34.57;100247.15;101583;1356;75222;-83
2021/12/25 07:21:29;;;;;;;;;;;;;;;21.38;34.62;100245.89;101540;1362;60518;-83
2021/12/25 07:24:24;;;;;;;;;;;;;;;21.38;34.67;100252.67;101601;1360;61798;-83
2021/12/25 07:27:03;;;;;;;;;;;;;;;21.39;34.63;100266.41;101099;1367;73756;-83
2021/12/25 07:30:02;;;;;;;;;;;;;;;;;;;;;
2021/12/25 07:32:50;;;;;;;;;;;;;;;21.39;34.70;100271.55;101284;1359;60628;-83
2021/12/25 07:35:44;;;;;;;;;;;;;;;21.40;34.59;100277.27;100885;1370;60536;-83
2021/12/25 07:38:53;;;;;;;;;;;;;;;21.40;34.66;100285.33;100235;1375;72891;-83
2021/12/25 07:41:41;;;;;;;;;;;;;;;21.39;34.61;100284.44;100270;1372;73993;-82
2021/12/25 07:44:36;;;;;;;;;;;;;;;;;;;;;
2021/12/25 07:47:39;;;;;;;;;;;;;;;;;;;;;
2021/12/25 07:50:15;;;;;;;;;;;;;;;21.40;34.68;100290.33;100259;1368;72954;-82
2021/12/25 07:53:01;;;;;;;;;;;;;;;21.40;34.71;100288.89;100246;1374;73439;-83
2021/12/25 07:55:50;;;;;;;;;;;;;;;21.40;34.59;100287.61;99772;1381;61303;-83
2021/12/25 07:58:43;;;;;;;;;;;;;;;21.40;34.60;100287.59;99827;1375;60607;-84
2021/12/25 08:01:20;;;;;;;;;;;;;;;21.40;34.76;100292.44;99766;1378;73101;-82
2021/12/25 08:04:25;;;;;;;;;;;;;;;;;;;;;
2021/12/25 08:07:02;;;;;;;;;;;;;;;21.41;34.68;100292.59;99777;1374;60595;-83
2021/12/25 08:09:48;;;;;;;;;;;;;;;21.40;34.67;100290.98;99736;1381;61519;-83
2021/12/25 08:12:33;;;;;;;;;;;;;;;21.41;34.75;100291.86;99884;1381;74506;-83
2021/12/25 08:18:25;;;;;;;;;;;;;;;;;;;;;
2021/12/25 08:21:34;;;;;;;;;;;;;;;;;;;;;
2021/12/25 08:24:18;;;;;;;;;;;;;;;21.41;34.64;100310.66;99920;1379;73810;-83
2021/12/25 08:27:06;;;;;;;;;;;;;;;21.41;34.78;100311.71;100527;1380;71672;-81
2021/12/25 08:29:41;;;;;;;;;;;;;;;21.41;34.71;100312.23;99929;1374;60425;-84
2021/12/25 08:32:18;;;;;;;;;;;;;;;;;;;;;
2021/12/25 08:34:50;;;;;;;;;;;;;;;21.42;34.72;100310.91;100297;1369;74135;-82
2021/12/25 08:37:37;;;;;;;;;;;;;;;21.42;34.74;100311.58;100413;1366;73943;-84
2021/12/25 08:40:53;;;;;;;;;;;;;;;21.42;34.72;100311.23;100447;1368;60479;-84
2021/12/25 08:43:36;;;;;;;;;;;;;;;21.42;34.77;100318.25;100257;1372;60542;-82
2021/12/25 08:46:43;;;;;;;;;;;;;;;21.42;34.73;100319.14;100816;1362;72891;-82
2021/12/25 08:49:15;;;;;;;;;;;;;;;21.42;34.64;100321.10;100833;1362;74180;-83
2021/12/25 08:51:52;;;;;;;;;;;;;;;21.42;34.65;100319.86;100794;1368;61269;-82
2021/12/25 08:54:58;;;;;;;;;;;;;;;21.42;34.76;100320.73;100820;1365;61969;-82
2021/12/25 08:57:33;;;;;;;;;;;;;;;21.41;34.82;100322.20;101278;1359;73943;-84
2021/12/25 09:00:24;;;;;;;;;;;;;;;21.42;34.78;100318.27;101411;1364;75045;-83
2021/12/25 09:03:42;;;;;;;;;;;;;;;;;;;;;
2021/12/25 09:06:26;;;;;;;;;;;;;;;21.42;34.83;100308.59;101106;1359;60621;-83
2021/12/25 09:09:03;;;;;;;;;;;;;;;21.42;34.77;100311.23;101123;1362;72936;-82
2021/12/25 09:12:03;;;;;;;;;;;;;;;;;;;;;
2021/12/25 09:14:41;;;;;;;;;;;;;;;21.41;34.73;100298.80;101437;1356;60788;-82
2021/12/25 09:17:32;;;;;;;;;;;;;;;21.42;34.74;100292.48;101344;1359;60519;-82
2021/12/25 09:20:28;;;;;;;;;;;;;;;21.41;34.87;100290.20;101163;1366;73928;-82
2021/12/25 09:23:32;;;;;;;;;;;;;;;;;;;;;
2021/12/25 09:26:17;;;;;;;;;;;;;;;21.42;34.73;100288.48;100500;1371;60459;-83
2021/12/25 09:28:56;;;;;;;;;;;;;;;21.43;34.72;100284.16;100486;1365;60937;-83
2021/12/25 09:32:07;;;;;;;;;;;;;;;;;;;;;
2021/12/25 09:34:47;;;;;;;;;;;;;;;21.43;34.68;100279.83;100617;1365;73861;-84
2021/12/25 09:37:53;;;;;;;;;;;;;;;21.44;34.67;100280.69;100524;1369;62366;-84
2021/12/25 09:40:21;;;;;;;;;;;;;;;21.44;34.85;100280.48;100498;1369;61337;-84
2021/12/25 09:43:05;;;;;;;;;;;;;;;21.45;34.85;100275.98;100475;1365;72778;-84
2021/12/25 09:45:51;;;;;;;;;;;;;;;21.45;34.80;100263.08;100633;1369;73939;-83
2021/12/25 09:48:28;;;;;;;;;;;;;;;21.45;34.82;100262.85;100842;1363;60714;-83
2021/12/25 09:51:17;;;;;;;;;;;;;;;21.46;34.71;100264.96;100756;1366;61536;-83
2021/12/25 09:54:21;;;;;;;;;;;;;;;21.46;34.76;100265.85;100830;1370;72837;-83
2021/12/25 09:57:03;;;;;;;;;;;;;;;;;;;;;
2021/12/25 09:59:43;;;;;;;;;;;;;;;21.46;34.71;100250.63;101549;1357;60362;-83
2021/12/25 10:02:42;;;;;;;;;;;;;;;;;;;;;
2021/12/25 10:05:13;;;;;;;;;;;;;;;;;;;;;
2021/12/25 10:07:59;;;;;;;;;;;;;;;21.46;34.82;100255.46;101471;1357;74899;-82
2021/12/25 10:10:35;;;;;;;;;;;;;;;21.47;34.96;100253.63;101466;1360;60422;-83
2021/12/25 10:13:50;;;;;;;;;;;;;;;21.47;34.94;100247.69;101033;1363;60489;-83
2021/12/25 10:16:44;;;;;;;;;;;;;;;21.47;34.83;100239.09;100561;1372;73893;-83
2021/12/25 10:19:22;;;;;;;;;;;;;;;21.47;34.79;100238.70;100596;1366;74094;-83
2021/12/25 10:22:27;;;;;;;;;;;;;;;;;;;;;
2021/12/25 10:25:11;;;;;;;;;;;;;;;21.48;34.87;100237.56;100287;1374;60537;-83
2021/12/25 10:28:06;;;;;;;;;;;;;;;21.48;34.89;100228.62;100441;1372;74596;-83
2021/12/25 10:31:04;;;;;;;;;;;;;;;21.49;34.82;100230.53;100396;1369;74123;-83
2021/12/25 10:33:39;;;;;;;;;;;;;;;21.49;34.88;100226.77;100470;1366;61487;-83
2021/12/25 10:36:19;;;;;;;;;;;;;;;21.49;34.95;100227.11;100459;1372;60961;-83
2021/12/25 10:39:06;;;;;;;;;;;;;;;;;;;;;
2021/12/25 10:41:44;;;;;;;;;;;;;;;21.49;34.84;100224.76;100439;1373;75229;-83
2021/12/25 10:44:46;;;;;;;;;;;;;;;21.49;34.91;100219.73;100439;1373;61214;-82
2021/12/25 10:47:20;;;;;;;;;;;;;;;21.50;34.83;100214.14;100420;1369;62088;-83
2021/12/25 10:50:02;;;;;;;;;;;;;;;21.50;34.94;100217.17;100550;1366;72152;-83
2021/12/25 10:52:48;;;;;;;;;;;;;;;21.51;34.88;100210.85;101375;1360;73246;-83
2021/12/25 10:55:30;;;;;;;;;;;;;;;21.51;34.72;100208.33;101339;1363;61619;-84
2021/12/25 10:58:32;;;;;;;;;;;;;;;21.51;34.81;100205.81;100941;1365;60411;-84
2021/12/25 11:01:13;;;;;;;;;;;;;;;21.52;34.80;100208.62;101301;1360;72823;-83
2021/12/25 11:03:58;;;;;;;;;;;;;;;;;;;;;
2021/12/25 11:06:38;;;;;;;;;;;;;;;;;;;;;
2021/12/25 11:09:42;;;;;;;;;;;;;;;21.52;34.84;100206.23;101550;1360;61691;-83
2021/12/25 11:12:22;;;;;;;;;;;;;;;21.52;34.74;100201.80;101544;1353;73589;-83
2021/12/25 11:15:37;;;;;;;;;;;;;;;;;;;;;
2021/12/25 11:18:16;;;;;;;;;;;;;;;;;;;;;
2021/12/25 11:21:19;;;;;;;;;;;;;;;21.54;34.79;100190.23;101435;1360;63263;-84
2021/12/25 11:24:02;;;;;;;;;;;;;;;21.54;34.83;100189.69;101521;1361;72582;-84
2021/12/25 11:26:48;;;;;;;;;;;;;;;21.54;34.93;100185.89;101314;1366;73867;-84
2021/12/25 11:29:28;;;;;;;;;;;;;;;21.54;34.86;100181.98;101515;1357;60461;-82
2021/12/25 11:32:21;;;;;;;;;;;;;;;21.55;34.82;100175.83;101456;1357;60377;-82
2021/12/25 11:34:48;;;;;;;;;;;;;;;21.55;34.95;100180.65;101446;1357;74382;-82
2021/12/25 11:37:35;;;;;;;;;;;;;;;21.55;34.85;100177.61;101434;1363;75313;-83
2021/12/25 11:40:07;;;;;;;;;;;;;;;21.55;34.90;100177.23;101447;1363;60454;-83
2021/12/25 11:43:22;;;;;;;;;;;;;;;21.55;35.07;100184.36;101390;1365;60533;-85
2021/12/25 11:45:49;;;;;;;;;;;;;;;21.55;34.95;100188.81;101230;1357;73258;-82
2021/12/25 11:48:47;;;;;;;;;;;;;;;21.55;35.02;100185.25;101440;1360;74039;-82
2021/12/25 11:51:39;;;;;;;;;;;;;;;21.56;35.14;100184.14;101487;1358;60617;-83
2021/12/25 11:55:13;;;;;;;;;;;;;;;21.57;34.99;100184.08;101478;1363;61466;-83
2021/12/25 11:58:19;;;;;;;;;;;;;;;21.57;34.92;100186.37;101522;1357;72783;-82
2021/12/25 12:00:55;;;;;;;;;;;;;;;21.57;34.96;100177.26;101464;1364;74113;-83
2021/12/25 12:04:04;;;;;;;;;;;;;;;21.57;35.16;100180.80;101385;1365;60505;-83
2021/12/25 12:07:06;;;;;;;;;;;;;;;21.58;35.20;100175.38;100754;1369;60910;-83
2021/12/25 12:10:02;;;;;;;;;;;;;;;21.58;35.09;100175.72;100625;1366;74151;-83
2021/12/25 12:13:01;;;;;;;;;;;;;;;;;;;;;
2021/12/25 12:16:03;;;;;;;;;;;;;;;21.59;35.17;100169.93;100235;1368;60680;-83
2021/12/25 12:18:50;;;;;;;;;;;;;;;21.59;35.20;100168.85;100275;1376;60849;-83
2021/12/25 12:21:46;;;;;;;;;;;;;;;21.59;35.11;100167.92;100216;1375;73949;-83
2021/12/25 12:27:35;;;;;;;;;;;;;;;21.60;35.25;100162.46;100504;1372;60494;-83
2021/12/25 12:30:41;;;;;;;;;;;;;;;21.61;35.21;100157.05;100697;1365;60673;-82
2021/12/25 12:33:32;;;;;;;;;;;;;;;21.60;35.14;100160.30;100639;1366;73862;-84
2021/12/25 12:36:17;;;;;;;;;;;;;;;21.60;35.23;100162.79;101053;1369;74089;-83
2021/12/25 12:39:16;;;;;;;;;;;;;;;;;;;;;
2021/12/25 12:42:08;;;;;;;;;;;;;;;21.61;35.23;100160.61;100696;1366;61906;-82
2021/12/25 12:44:56;;;;;;;;;;;;;;;21.61;35.27;100160.25;101311;1356;72885;-83
2021/12/25 12:47:37;;;;;;;;;;;;;;;;;;;;;
2021/12/25 12:50:18;;;;;;;;;;;;;;;21.62;35.13;100158.24;101351;1357;60523;-83
2021/12/25 12:53:09;;;;;;;;;;;;;;;21.62;35.36;100163.40;101475;1357;60549;-83
2021/12/25 12:55:47;;;;;;;;;;;;;;;21.63;35.15;100164.95;101622;1351;72705;-82
2021/12/25 12:58:19;;;;;;;;;;;;;;;21.64;35.14;100157.38;101501;1357;73891;-83
2021/12/25 13:01:08;;;;;;;;;;;;;;;21.64;35.28;100158.77;101714;1351;61069;-83
2021/12/25 13:03:54;;;;;;;;;;;;;;;21.65;35.05;100162.83;101789;1357;60988;-82
2021/12/25 13:09:40;;;;;;;;;;;;;;;21.65;35.18;100159.40;101386;1357;74673;-83
2021/12/25 13:15:42;;;;;;;;;;;;;;;;;;;;;
2021/12/25 13:18:23;;;;;;;;;;;;;;;;;;;;;
2021/12/25 13:20:57;;;;;;;;;;;;;;;21.67;35.14;100175.19;101094;1363;72848;-82
2021/12/25 13:23:42;;;;;;;;;;;;;;;;;;;;;
2021/12/25 13:26:32;;;;;;;;;;;;;;;21.67;35.14;100178.36;101548;1360;60691;-83
2021/12/25 13:29:07;;;;;;;;;;;;;;;21.68;35.04;100180.46;101527;1360;71911;-82
2021/12/25 13:31:42;;;;;;;;;;;;;;;21.68;35.20;100180.80;101328;1363;75428;-82
2021/12/25 13:34:37;;;;;;;;;;;;;;;21.68;35.26;100179.56;101541;1360;60419;-82
2021/12/25 13:37:22;;;;;;;;;;;;;;;21.69;35.12;100177.67;101352;1363;62034;-82
2021/12/25 13:40:00;;;;;;;;;;;;;;;21.70;35.12;100179.94;101363;1363;73834;-82
2021/12/25 13:42:37;;;;;;;;;;;;;;;;;;;;;
2021/12/25 13:45:24;;;;;;;;;;;;;;;21.70;34.98;100178.49;101650;1354;60517;-84
2021/12/25 13:48:06;;;;;;;;;;;;;;;21.70;35.14;100181.52;101755;1358;60670;-84
2021/12/25 13:50:52;;;;;;;;;;;;;;;;;;;;;
2021/12/25 13:53:39;;;;;;;;;;;;;;;;;;;;;
2021/12/25 13:56:18;;;;;;;;;;;;;;;21.71;35.17;100182.31;101884;1348;60514;-83
2021/12/25 13:59:30;;;;;;;;;;;;;;;21.72;35.17;100182.64;101941;1348;60265;-83
2021/12/25 14:02:40;;;;;;;;;;;;;;;21.72;35.15;100181.91;101792;1355;72936;-83
2021/12/25 14:05:16;;;;;;;;;;;;;;;21.72;35.06;100179.73;101799;1351;74079;-83
2021/12/25 14:08:20;;;;;;;;;;;;;;;21.73;35.20;100183.41;101800;1351;60412;-83
2021/12/25 14:10:59;;;;;;;;;;;;;;;;;;;;;
2021/12/25 14:13:36;;;;;;;;;;;;;;;21.74;35.13;100178.30;101784;1355;73690;-83
2021/12/25 14:16:10;;;;;;;;;;;;;;;21.75;35.18;100178.43;101783;1357;74155;-83
2021/12/25 14:19:00;;;;;;;;;;;;;;;21.76;35.27;100175.87;101790;1352;60239;-83
2021/12/25 14:21:37;;;;;;;;;;;;;;;21.76;35.21;100178.02;101824;1354;60771;-83
2021/12/25 14:24:38;;;;;;;;;;;;;;;21.75;35.25;100182.88;101760;1357;71734;-83
2021/12/25 14:27:24;;;;;;;;;;;;;;;21.75;35.10;100180.90;101791;1353;75212;-83
2021/12/25 14:29:53;;;;;;;;;;;;;;;21.75;35.19;100183.77;101843;1351;60428;-83
2021/12/25 14:32:35;;;;;;;;;;;;;;;21.76;35.25;100180.70;101710;1354;60478;-83
2021/12/25 14:35:04;;;;;;;;;;;;;;;21.76;35.12;100186.05;101787;1355;72681;-83
2021/12/25 14:37:47;;;;;;;;;;;;;;;21.76;35.20;100188.95;101769;1351;75089;-84
2021/12/25 14:40:17;;;;;;;;;;;;;;;21.76;35.17;100188.16;101994;1345;61525;-83
2021/12/25 14:42:53;;;;;;;;;;;;;;;21.76;35.29;100189.41;101960;1345;60550;-83
2021/12/25 14:45:30;;;;;;;;;;;;;;;21.77;35.25;100190.45;101992;1351;72861;-83
2021/12/25 14:48:07;;;;;;;;;;;;;;;21.77;35.20;100194.40;101967;1345;74156;-84
2021/12/25 14:51:01;;;;;;;;;;;;;;;21.77;35.18;100191.70;101941;1346;60523;-83
2021/12/25 14:54:10;;;;;;;;;;;;;;;21.77;35.31;100196.00;101955;1345;61810;-84
2021/12/25 14:56:43;;;;;;;;;;;;;;;21.77;35.36;100197.80;101963;1345;74273;-84
2021/12/25 14:59:19;;;;;;;;;;;;;;;21.77;35.19;100203.71;102091;1346;73774;-83
2021/12/25 15:01:57;;;;;;;;;;;;;;;21.77;35.32;100208.73;102015;1346;60464;-83
2021/12/25 15:04:43;;;;;;;;;;;;;;;;;;;;;
2021/12/25 15:07:29;;;;;;;;;;;;;;;21.78;35.14;100210.84;102077;1348;74642;-82
2021/12/25 15:09:55;;;;;;;;;;;;;;;21.77;35.24;100208.90;102074;1345;74622;-82
2021/12/25 15:12:48;;;;;;;;;;;;;;;21.77;35.17;100212.13;99559;1348;3354749;-83
2021/12/25 15:15:42;;;;;;;;;;;;;;;21.78;35.14;100210.30;101980;1351;61400;-84
2021/12/25 15:18:28;;;;;;;;;;;;;;;21.78;35.43;100208.66;101954;1351;73214;-83
2021/12/25 15:21:19;;;;;;;;;;;;;;;21.78;35.34;100216.20;101950;1345;74719;-83
2021/12/25 15:24:07;;;;;;;;;;;;;;;21.78;35.23;100218.70;101955;1351;60490;-83
2021/12/25 15:27:09;;;;;;;;;;;;;;;21.78;35.40;100217.98;102048;1345;61979;-83
2021/12/25 15:29:57;;;;;;;;;;;;;;;21.78;35.27;100217.05;101951;1351;72622;-83
2021/12/25 15:32:39;;;;;;;;;;;;;;;21.78;35.31;100215.47;101764;1357;74016;-83
2021/12/25 15:35:24;;;;;;;;;;;;;;;21.77;35.50;100219.06;101739;1354;61177;-83
2021/12/25 15:38:15;;;;;;;;;;;;;;;21.77;35.22;100215.86;101752;1354;61298;-83
2021/12/25 15:41:07;;;;;;;;;;;;;;;21.77;35.37;100219.30;101825;1351;73180;-84
2021/12/25 15:44:03;;;;;;;;;;;;;;;;;;;;;
2021/12/25 15:46:30;;;;;;;;;;;;;;;21.77;35.35;100227.00;101514;1363;61360;-84
2021/12/25 15:49:36;;;;;;;;;;;;;;;21.77;35.57;100226.46;101402;1357;61218;-83
2021/12/25 15:52:10;;;;;;;;;;;;;;;21.76;35.62;100224.33;101534;1361;72724;-82
2021/12/25 15:55:27;;;;;;;;;;;;;;;;;;;;;
2021/12/25 15:58:18;;;;;;;;;;;;;;;;;;;;;
2021/12/25 16:01:17;;;;;;;;;;;;;;;21.76;35.60;100225.97;100006;1378;61496;-83
2021/12/25 16:03:55;;;;;;;;;;;;;;;21.76;35.52;100227.76;100218;1375;72274;-83
2021/12/25 16:06:51;;;;;;;;;;;;;;;21.77;35.52;100227.68;100202;1371;75998;-83
2021/12/25 16:09:30;;;;;;;;;;;;;;;;;;;;;
2021/12/25 16:12:35;;;;;;;;;;;;;;;;;;;;;
2021/12/25 16:15:16;;;;;;;;;;;;;;;;;;;;;
2021/12/25 16:18:15;;;;;;;;;;;;;;;;;;;;;
2021/12/25 16:20:51;;;;;;;;;;;;;;;21.76;35.60;100236.38;100265;1368;61243;-83
2021/12/25 16:23:57;;;;;;;;;;;;;;;21.76;35.53;100236.95;100159;1371;61247;-83
2021/12/25 16:26:43;;;;;;;;;;;;;;;21.75;35.64;100238.59;100745;1371;74165;-83
2021/12/25 16:29:45;;;;;;;;;;;;;;;21.76;35.67;100238.16;100404;1372;75598;-83
2021/12/25 16:32:42;;;;;;;;;;;;;;;;;;;;;
2021/12/25 16:35:24;;;;;;;;;;;;;;;21.77;35.62;100242.41;100753;1369;61309;-82
2021/12/25 16:38:12;;;;;;;;;;;;;;;21.76;35.70;100242.27;100972;1361;73837;-82
2021/12/25 16:40:52;;;;;;;;;;;;;;;;;;;;;
2021/12/25 16:43:30;;;;;;;;;;;;;;;21.76;35.61;100242.24;101351;1360;61262;-82
2021/12/25 16:46:34;;;;;;;;;;;;;;;21.77;35.79;100244.76;101385;1357;61360;-83
2021/12/25 16:49:18;;;;;;;;;;;;;;;21.77;35.74;100243.11;101136;1365;73959;-83
2021/12/25 16:52:04;;;;;;;;;;;;;;;21.76;35.81;100238.87;101418;1357;74685;-84
2021/12/25 16:54:30;;;;;;;;;;;;;;;21.77;35.71;100236.84;101785;1352;62834;-82
2021/12/25 16:57:25;;;;;;;;;;;;;;;;;;;;;
2021/12/25 17:00:30;;;;;;;;;;;;;;;21.77;35.82;100237.74;101746;1357;73922;-83
2021/12/25 17:03:05;;;;;;;;;;;;;;;21.76;35.77;100234.00;101273;1360;74965;-82
2021/12/25 17:05:52;;;;;;;;;;;;;;;21.77;35.79;100231.12;101463;1356;61186;-83
2021/12/25 17:08:51;;;;;;;;;;;;;;;21.77;35.91;100232.88;101756;1358;61271;-83
2021/12/25 17:11:28;;;;;;;;;;;;;;;21.77;35.77;100233.23;101755;1351;72861;-83
2021/12/25 17:14:06;;;;;;;;;;;;;;;21.78;35.94;100236.43;101743;1358;75023;-83
2021/12/25 17:16:59;;;;;;;;;;;;;;;21.78;35.76;100234.47;101754;1354;61194;-83
2021/12/25 17:19:42;;;;;;;;;;;;;;;21.78;35.83;100236.43;101748;1355;61173;-83